sensor_id;sensor_type;location;lat;lon;timestamp;pressure;altitude;pressure_sealevel;temperature;humidity
32330;BME280;18807;52.434;13.238;2023-05-12T00:04:52;75779.81;;;-142.05;43.83
32330;BME280;18807;52.434;13.238;2023-05-12T00:12:27;75792.06;;;-142.05;43.97
32330;BME280;18807;52.434;13.238;2023-05-12T00:20:01;75804.31;;;-142.05;44.23
32330;BME280;18807;52.434;13.238;2023-05-12T00:27:36;75814.53;;;-142.05;43.93
32330;BME280;18807;52.434;13.238;2023-05-12T00:35:09;75832.88;;;-142.05;44.07
32330;BME280;18807;52.434;13.238;2023-05-12T00:42:44;75845.13;;;-142.05;43.95
32330;BME280;18807;52.434;13.238;2023-05-12T00:50:18;75855.34;;;-142.05;43.80
32330;BME280;18807;52.434;13.238;2023-05-12T00:57:54;75861.47;;;-142.05;44.09
32330;BME280;18807;52.434;13.238;2023-05-12T01:05:29;75869.63;;;-142.05;43.95
32330;BME280;18807;52.434;13.238;2023-05-12T01:13:04;75892.06;;;-142.05;44.53
32330;BME280;18807;52.434;13.238;2023-05-12T01:20:41;75904.31;;;-142.05;44.35
32330;BME280;18807;52.434;13.238;2023-05-12T01:28:16;75908.41;;;-142.05;44.57
32330;BME280;18807;52.434;13.238;2023-05-12T01:35:50;75928.81;;;-142.05;44.68
32330;BME280;18807;52.434;13.238;2023-05-12T01:43:26;75934.94;;;-142.05;45.13
32330;BME280;18807;52.434;13.238;2023-05-12T01:50:59;75959.41;;;-142.05;45.37
32330;BME280;18807;52.434;13.238;2023-05-12T01:58:35;75967.59;;;-142.05;45.50
32330;BME280;18807;52.434;13.238;2023-05-12T02:06:10;75979.81;;;-142.05;46.06
32330;BME280;18807;52.434;13.238;2023-05-12T02:13:45;76000.22;;;-142.05;45.96
32330;BME280;18807;52.434;13.238;2023-05-12T02:21:19;76006.34;;;-142.05;46.06
32330;BME280;18807;52.434;13.238;2023-05-12T02:28:54;76020.66;;;-142.05;46.35
32330;BME280;18807;52.434;13.238;2023-05-12T02:36:28;76026.78;;;-142.05;46.20
32330;BME280;18807;52.434;13.238;2023-05-12T02:44:03;76034.94;;;-142.05;46.53
32330;BME280;18807;52.434;13.238;2023-05-12T02:51:37;76034.94;;;-142.05;46.52
32330;BME280;18807;52.434;13.238;2023-05-12T02:59:12;76065.53;;;-142.05;46.73
32330;BME280;18807;52.434;13.238;2023-05-12T03:06:46;76059.41;;;-142.05;46.84
32330;BME280;18807;52.434;13.238;2023-05-12T03:14:22;76083.91;;;-142.05;47.67
32330;BME280;18807;52.434;13.238;2023-05-12T03:21:57;76096.16;;;-142.05;47.73
32330;BME280;18807;52.434;13.238;2023-05-12T03:29:33;76114.53;;;-142.05;48.00
32330;BME280;18807;52.434;13.238;2023-05-12T03:37:07;76132.91;;;-142.05;48.25
32330;BME280;18807;52.434;13.238;2023-05-12T03:44:42;76151.25;;;-142.05;48.67
32330;BME280;18807;52.434;13.238;2023-05-12T03:52:16;76167.59;;;-142.05;48.83
32330;BME280;18807;52.434;13.238;2023-05-12T03:59:52;76181.88;;;-142.05;49.04
32330;BME280;18807;52.434;13.238;2023-05-12T04:07:26;76198.22;;;-142.05;49.38
32330;BME280;18807;52.434;13.238;2023-05-12T04:15:01;76204.31;;;-142.05;49.83
32330;BME280;18807;52.434;13.238;2023-05-12T04:22:35;76206.38;;;-142.05;50.18
32330;BME280;18807;52.434;13.238;2023-05-12T04:30:28;76212.50;;;-142.05;50.37
32330;BME280;18807;52.434;13.238;2023-05-12T04:38:02;76230.88;;;-142.05;50.55
32330;BME280;18807;52.434;13.238;2023-05-12T04:45:54;76251.28;;;-142.05;50.96
32330;BME280;18807;52.434;13.238;2023-05-12T04:53:31;76265.56;;;-142.05;51.27
32330;BME280;18807;52.434;13.238;2023-05-12T05:01:08;76265.56;;;-142.05;51.62
32330;BME280;18807;52.434;13.238;2023-05-12T05:08:44;76283.94;;;-142.05;52.15
32330;BME280;18807;52.434;13.238;2023-05-12T05:16:29;76283.94;;;-142.05;51.68
32330;BME280;18807;52.434;13.238;2023-05-12T05:24:03;76281.88;;;-142.05;51.88
32330;BME280;18807;52.434;13.238;2023-05-12T05:31:41;76255.34;;;-142.05;51.68
32330;BME280;18807;52.434;13.238;2023-05-12T05:39:15;76241.06;;;-142.05;50.75
32330;BME280;18807;52.434;13.238;2023-05-12T05:46:51;76194.13;;;-142.05;49.38
32330;BME280;18807;52.434;13.238;2023-05-12T05:54:25;76159.44;;;-142.05;49.63
32330;BME280;18807;52.434;13.238;2023-05-12T06:02:00;76112.50;;;-142.05;48.36
32330;BME280;18807;52.434;13.238;2023-05-12T06:09:34;76063.50;;;-142.05;47.14
32330;BME280;18807;52.434;13.238;2023-05-12T06:17:09;76022.69;;;-142.05;45.83
32330;BME280;18807;52.434;13.238;2023-05-12T06:24:43;76028.81;;;-142.05;46.52
32330;BME280;18807;52.434;13.238;2023-05-12T06:32:18;75961.47;;;-142.05;44.09
32330;BME280;18807;52.434;13.238;2023-05-12T06:39:52;75922.69;;;-142.05;44.11
32330;BME280;18807;52.434;13.238;2023-05-12T06:47:28;75879.81;;;-142.05;42.98
32330;BME280;18807;52.434;13.238;2023-05-12T06:55:02;75824.72;;;-142.05;42.17
32330;BME280;18807;52.434;13.238;2023-05-12T07:02:38;75792.06;;;-142.05;41.99
32330;BME280;18807;52.434;13.238;2023-05-12T07:10:12;75777.78;;;-142.05;41.48
32330;BME280;18807;52.434;13.238;2023-05-12T07:17:47;75728.81;;;-142.05;40.41
32330;BME280;18807;52.434;13.238;2023-05-12T07:25:21;75665.53;;;-142.05;38.27
32330;BME280;18807;52.434;13.238;2023-05-12T07:32:57;75622.69;;;-142.05;37.52
32330;BME280;18807;52.434;13.238;2023-05-12T07:40:50;75596.16;;;-142.05;37.79
32330;BME280;18807;52.434;13.238;2023-05-12T07:48:25;75508.41;;;-142.05;35.25
32330;BME280;18807;52.434;13.238;2023-05-12T07:55:59;75449.25;;;-142.05;34.42
32330;BME280;18807;52.434;13.238;2023-05-12T08:03:35;75410.47;;;-142.05;33.12
32330;BME280;18807;52.434;13.238;2023-05-12T08:11:09;75334.97;;;-142.05;33.18
32330;BME280;18807;52.434;13.238;2023-05-12T08:18:45;75330.88;;;-142.05;31.96
32330;BME280;18807;52.434;13.238;2023-05-12T08:26:19;75269.69;;;-142.05;31.76
32330;BME280;18807;52.434;13.238;2023-05-12T08:33:55;75208.47;;;-142.05;31.38
32330;BME280;18807;52.434;13.238;2023-05-12T08:41:51;75175.81;;;-142.05;30.56
32330;BME280;18807;52.434;13.238;2023-05-12T08:49:30;75159.50;;;-142.05;29.89
32330;BME280;18807;52.434;13.238;2023-05-12T08:57:04;75110.53;;;-142.05;29.88
32330;BME280;18807;52.434;13.238;2023-05-12T09:04:42;75098.28;;;-142.05;29.41
32330;BME280;18807;52.434;13.238;2023-05-12T09:12:35;75098.28;;;-142.05;28.62
32330;BME280;18807;52.434;13.238;2023-05-12T09:20:12;75043.19;;;-142.05;28.02
32330;BME280;18807;52.434;13.238;2023-05-12T09:28:32;75075.84;;;-142.05;26.67
32330;BME280;18807;52.434;13.238;2023-05-12T09:36:56;75047.28;;;-142.05;27.73
32330;BME280;18807;52.434;13.238;2023-05-12T09:44:30;75026.88;;;-142.05;28.88
32330;BME280;18807;52.434;13.238;2023-05-12T10:01:02;75057.47;;;-142.05;27.28
32330;BME280;18807;52.434;13.238;2023-05-12T10:09:27;75094.19;;;-142.05;27.51
32330;BME280;18807;52.434;13.238;2023-05-12T10:17:42;75057.47;;;-142.05;28.67
32330;BME280;18807;52.434;13.238;2023-05-12T10:25:52;75053.41;;;-142.05;27.83
32330;BME280;18807;52.434;13.238;2023-05-12T10:33:39;75094.19;;;-142.05;28.62
32330;BME280;18807;52.434;13.238;2023-05-12T10:41:14;75090.13;;;-142.05;29.12
32330;BME280;18807;52.434;13.238;2023-05-12T10:49:11;75145.22;;;-142.05;29.85
32330;BME280;18807;52.434;13.238;2023-05-12T10:57:37;75171.72;;;-142.05;29.79
32330;BME280;18807;52.434;13.238;2023-05-12T11:05:35;75132.97;;;-142.05;30.50
32330;BME280;18807;52.434;13.238;2023-05-12T11:14:12;75190.09;;;-142.05;30.91
32330;BME280;18807;52.434;13.238;2023-05-12T11:21:53;75110.53;;;-142.05;30.53
32330;BME280;18807;52.434;13.238;2023-05-12T11:29:42;75116.66;;;-142.05;30.32
32330;BME280;18807;52.434;13.238;2023-05-12T11:46:07;75171.72;;;-142.05;28.97
32330;BME280;18807;52.434;13.238;2023-05-12T11:53:51;75110.53;;;-142.05;29.04
32330;BME280;18807;52.434;13.238;2023-05-12T12:10:42;75055.44;;;-142.05;28.36
32330;BME280;18807;52.434;13.238;2023-05-12T12:37:04;75053.41;;;-142.05;28.10
32330;BME280;18807;52.434;13.238;2023-05-12T13:11:39;75026.88;;;-142.05;27.75
32330;BME280;18807;52.434;13.238;2023-05-12T13:19:39;75022.78;;;-142.05;27.73
32330;BME280;18807;52.434;13.238;2023-05-12T13:27:16;75006.47;;;-142.05;27.81
32330;BME280;18807;52.434;13.238;2023-05-12T13:34:49;75028.91;;;-142.05;28.81
32330;BME280;18807;52.434;13.238;2023-05-12T13:42:25;75053.41;;;-142.05;27.79
32330;BME280;18807;52.434;13.238;2023-05-12T13:49:59;75004.44;;;-142.05;27.93
32330;BME280;18807;52.434;13.238;2023-05-12T13:57:34;74973.81;;;-142.05;27.85
32330;BME280;18807;52.434;13.238;2023-05-12T14:05:08;74935.06;;;-142.05;28.34
32330;BME280;18807;52.434;13.238;2023-05-12T14:12:43;74986.06;;;-142.05;27.07
32330;BME280;18807;52.434;13.238;2023-05-12T14:20:18;74914.66;;;-142.05;27.76
32330;BME280;18807;52.434;13.238;2023-05-12T14:27:53;75004.44;;;-142.05;28.07
32330;BME280;18807;52.434;13.238;2023-05-12T14:35:27;74998.31;;;-142.05;28.53
32330;BME280;18807;52.434;13.238;2023-05-12T14:43:03;74998.31;;;-142.05;28.06
32330;BME280;18807;52.434;13.238;2023-05-12T14:50:37;74981.97;;;-142.05;28.39
32330;BME280;18807;52.434;13.238;2023-05-12T14:58:12;74961.59;;;-142.05;28.71
32330;BME280;18807;52.434;13.238;2023-05-12T15:05:46;74882.00;;;-142.05;27.67
32330;BME280;18807;52.434;13.238;2023-05-12T15:13:39;74930.97;;;-142.05;28.00
32330;BME280;18807;52.434;13.238;2023-05-12T15:21:12;74975.88;;;-142.05;27.92
32330;BME280;18807;52.434;13.238;2023-05-12T15:37:41;74933.03;;;-142.05;28.00
32330;BME280;18807;52.434;13.238;2023-05-12T15:45:15;74990.16;;;-142.05;28.15
32330;BME280;18807;52.434;13.238;2023-05-12T15:52:50;74981.97;;;-142.05;28.42
32330;BME280;18807;52.434;13.238;2023-05-12T16:00:24;74988.09;;;-142.05;27.89
32330;BME280;18807;52.434;13.238;2023-05-12T16:07:59;74926.91;;;-142.05;28.49
32330;BME280;18807;52.434;13.238;2023-05-12T16:15:33;74877.94;;;-142.05;27.71
32330;BME280;18807;52.434;13.238;2023-05-12T16:23:09;74967.69;;;-142.05;27.99
32330;BME280;18807;52.434;13.238;2023-05-12T16:30:43;74951.38;;;-142.05;28.59
32330;BME280;18807;52.434;13.238;2023-05-12T16:38:18;74947.28;;;-142.05;28.46
32330;BME280;18807;52.434;13.238;2023-05-12T16:45:57;74947.28;;;-142.05;28.28
32330;BME280;18807;52.434;13.238;2023-05-12T16:53:34;74994.22;;;-142.05;28.44
32330;BME280;18807;52.434;13.238;2023-05-12T17:01:08;75039.09;;;-142.05;28.47
32330;BME280;18807;52.434;13.238;2023-05-12T17:08:43;75065.63;;;-142.05;29.09
32330;BME280;18807;52.434;13.238;2023-05-12T17:16:17;75067.69;;;-142.05;28.92
32330;BME280;18807;52.434;13.238;2023-05-12T17:23:53;75116.66;;;-142.05;28.95
32330;BME280;18807;52.434;13.238;2023-05-12T17:31:27;75130.94;;;-142.05;29.46
32330;BME280;18807;52.434;13.238;2023-05-12T17:39:02;75145.22;;;-142.05;29.50
32330;BME280;18807;52.434;13.238;2023-05-12T17:46:37;75175.81;;;-142.05;29.63
32330;BME280;18807;52.434;13.238;2023-05-12T17:54:12;75216.63;;;-142.05;29.51
32330;BME280;18807;52.434;13.238;2023-05-12T18:01:46;75245.19;;;-142.05;29.90
32330;BME280;18807;52.434;13.238;2023-05-12T18:09:21;75273.75;;;-142.05;30.32
32330;BME280;18807;52.434;13.238;2023-05-12T18:16:56;75310.47;;;-142.05;30.12
32330;BME280;18807;52.434;13.238;2023-05-12T18:24:31;75332.94;;;-142.05;30.20
32330;BME280;18807;52.434;13.238;2023-05-12T18:32:05;75347.22;;;-142.05;30.46
32330;BME280;18807;52.434;13.238;2023-05-12T18:39:41;75373.75;;;-142.05;30.52
32330;BME280;18807;52.434;13.238;2023-05-12T18:47:14;75404.34;;;-142.05;30.88
32330;BME280;18807;52.434;13.238;2023-05-12T19:03:43;75457.41;;;-142.05;31.19
32330;BME280;18807;52.434;13.238;2023-05-12T19:11:17;75488.00;;;-142.05;31.61
32330;BME280;18807;52.434;13.238;2023-05-12T19:18:53;75510.47;;;-142.05;31.66
32330;BME280;18807;52.434;13.238;2023-05-12T19:26:27;75532.91;;;-142.05;32.02
32330;BME280;18807;52.434;13.238;2023-05-12T19:34:02;75555.34;;;-142.05;32.31
32330;BME280;18807;52.434;13.238;2023-05-12T19:41:37;75571.69;;;-142.05;32.22
32330;BME280;18807;52.434;13.238;2023-05-12T19:49:15;75592.09;;;-142.05;32.50
32330;BME280;18807;52.434;13.238;2023-05-12T19:56:55;75612.50;;;-142.05;32.78
32330;BME280;18807;52.434;13.238;2023-05-12T20:04:35;75626.78;;;-142.05;33.18
32330;BME280;18807;52.434;13.238;2023-05-12T20:12:44;75649.22;;;-142.05;33.56
32330;BME280;18807;52.434;13.238;2023-05-12T20:20:29;75667.59;;;-142.05;33.67
32330;BME280;18807;52.434;13.238;2023-05-12T20:28:08;75677.78;;;-142.05;34.10
32330;BME280;18807;52.434;13.238;2023-05-12T20:35:49;75692.06;;;-142.05;34.31
32330;BME280;18807;52.434;13.238;2023-05-12T20:43:46;75710.44;;;-142.05;34.75
32330;BME280;18807;52.434;13.238;2023-05-12T20:51:25;75724.72;;;-142.05;34.79
32330;BME280;18807;52.434;13.238;2023-05-12T20:58:59;75749.22;;;-142.05;35.24
32330;BME280;18807;52.434;13.238;2023-05-12T21:06:35;75763.50;;;-142.05;35.30
32330;BME280;18807;52.434;13.238;2023-05-12T21:14:09;75773.72;;;-142.05;35.65
32330;BME280;18807;52.434;13.238;2023-05-12T21:21:45;75792.06;;;-142.05;35.87
32330;BME280;18807;52.434;13.238;2023-05-12T21:29:19;75814.53;;;-142.05;36.12
32330;BME280;18807;52.434;13.238;2023-05-12T21:36:55;75824.72;;;-142.05;36.40
32330;BME280;18807;52.434;13.238;2023-05-12T21:44:29;75834.94;;;-142.05;36.49
32330;BME280;18807;52.434;13.238;2023-05-12T21:52:10;75847.16;;;-142.05;36.99
32330;BME280;18807;52.434;13.238;2023-05-12T21:59:52;75865.53;;;-142.05;37.12
32330;BME280;18807;52.434;13.238;2023-05-12T22:07:49;75871.66;;;-142.05;37.33
32330;BME280;18807;52.434;13.238;2023-05-12T22:15:32;75892.06;;;-142.05;37.45
32330;BME280;18807;52.434;13.238;2023-05-12T22:23:19;75908.41;;;-142.05;37.82
32330;BME280;18807;52.434;13.238;2023-05-12T22:31:04;75918.59;;;-142.05;38.14
32330;BME280;18807;52.434;13.238;2023-05-12T22:38:44;75932.88;;;-142.05;38.33
32330;BME280;18807;52.434;13.238;2023-05-12T22:46:23;75947.16;;;-142.05;38.59
32330;BME280;18807;52.434;13.238;2023-05-12T22:54:07;75957.38;;;-142.05;38.58
32330;BME280;18807;52.434;13.238;2023-05-12T23:01:52;75971.66;;;-142.05;38.93
32330;BME280;18807;52.434;13.238;2023-05-12T23:09:32;75983.91;;;-142.05;38.93
32330;BME280;18807;52.434;13.238;2023-05-12T23:17:12;75998.19;;;-142.05;39.27
32330;BME280;18807;52.434;13.238;2023-05-12T23:24:47;76010.44;;;-142.05;39.58
32330;BME280;18807;52.434;13.238;2023-05-12T23:32:21;76028.81;;;-142.05;39.98
32330;BME280;18807;52.434;13.238;2023-05-12T23:39:56;76049.22;;;-142.05;40.34
32330;BME280;18807;52.434;13.238;2023-05-12T23:47:30;76067.59;;;-142.05;40.62
32330;BME280;18807;52.434;13.238;2023-05-12T23:55:06;76083.91;;;-142.05;41.02
